Time;durP1;ratioP1;P1;durP2;ratioP2;P2;SDS_P1;SDS_P2;PMS_P1;PMS_P2;Temp;Humidity;BMP_temperature;BMP_pressure;BME280_temperature;BME280_humidity;BME280_pressure;Samples;Min_cycle;Max_cycle;Signal;HPM_P1;HPM_P2
2022/01/13 00:00:58;;;;;;;112.65;52.08;;;;;;;-3.81;100.00;100772.72;2107202;28;20194;-74
2022/01/13 00:02:03;;;;;;;100.70;48.22;;;;;;;-3.84;100.00;100776.44;2107140;28;20204;-73
2022/01/13 00:03:07;;;;;;;109.95;50.70;;;;;;;-3.83;100.00;100779.88;2099482;28;20679;-74
2022/01/13 00:04:12;;;;;;;117.47;50.38;;;;;;;-3.82;100.00;100776.28;2107191;28;20243;-73
2022/01/13 00:05:17;;;;;;;112.70;50.10;;;;;;;-3.86;100.00;100759.34;2107136;28;20300;-73
2022/01/13 00:06:18;;;;;;;107.72;47.38;;;;;;;-3.82;100.00;100763.25;2098745;28;20278;-73
2022/01/13 00:07:20;;;;;;;118.20;49.47;;;;;;;-3.75;100.00;100764.22;2098741;28;20232;-73
2022/01/13 00:08:20;;;;;;;113.18;51.75;;;;;;;-3.76;100.00;100765.22;2107251;28;20640;-73
2022/01/13 00:09:22;;;;;;;107.97;49.50;;;;;;;-3.80;100.00;100759.53;2107144;28;20554;-73
2022/01/13 00:10:24;;;;;;;111.13;51.28;;;;;;;-3.75;100.00;100766.84;2107250;28;20196;-73
2022/01/13 00:11:25;;;;;;;105.40;49.15;;;;;;;-3.76;100.00;100760.00;2107653;28;20585;-73
2022/01/13 00:12:33;;;;;;;113.88;51.05;;;;;;;-3.77;100.00;100758.38;2107785;28;20193;-73
2022/01/13 00:13:46;;;;;;;109.75;48.85;;;;;;;-3.78;100.00;100761.97;2107915;28;20573;-73
2022/01/13 00:15:07;;;;;;;121.70;52.28;;;;;;;-3.79;100.00;100750.72;2107025;28;20699;-73
2022/01/13 00:16:26;;;;;;;104.10;47.65;;;;;;;-3.76;100.00;100758.22;2107360;28;20647;-73
2022/01/13 00:17:45;;;;;;;108.15;50.88;;;;;;;-3.72;100.00;100766.53;2106971;28;20214;-73
2022/01/13 00:18:50;;;;;;;108.78;49.20;;;;;;;-3.71;100.00;100766.38;2107252;28;20284;-73
2022/01/13 00:20:10;;;;;;;110.70;49.42;;;;;;;-3.70;100.00;100751.53;2107043;28;20196;-73
2022/01/13 00:21:15;;;;;;;114.30;49.92;;;;;;;-3.67;100.00;100746.00;2106468;28;20246;-73
2022/01/13 00:22:24;;;;;;;109.13;50.30;;;;;;;-3.67;100.00;100753.81;2107180;28;20275;-73
2022/01/13 00:23:41;;;;;;;117.38;51.28;;;;;;;-3.64;100.00;100763.13;2107018;28;20614;-73
2022/01/13 00:24:46;;;;;;;112.00;50.17;;;;;;;-3.65;100.00;100745.81;2107487;28;20688;-74
2022/01/13 00:25:53;;;;;;;114.30;50.80;;;;;;;-3.66;100.00;100741.59;2106969;28;20197;-73
2022/01/13 00:26:55;;;;;;;112.22;48.83;;;;;;;-3.67;100.00;100732.13;2107389;28;20644;-73
2022/01/13 00:27:59;;;;;;;111.80;51.88;;;;;;;-3.65;100.00;100744.03;2106988;28;20212;-73
2022/01/13 00:29:02;;;;;;;111.32;50.00;;;;;;;-3.58;100.00;100745.03;2098985;28;20202;-73
2022/01/13 00:30:13;;;;;;;115.82;51.17;;;;;;;-3.56;100.00;100755.28;2105888;28;20264;-73
2022/01/13 00:31:19;;;;;;;112.95;49.90;;;;;;;-3.55;100.00;100741.28;2107660;28;20230;-73
2022/01/13 00:32:21;;;;;;;107.45;52.25;;;;;;;-3.54;100.00;100746.34;2106889;28;20198;-73
2022/01/13 00:33:25;;;;;;;114.75;50.22;;;;;;;-3.53;100.00;100750.56;2098708;28;20191;-74
2022/01/13 00:34:27;;;;;;;114.35;50.75;;;;;;;-3.52;100.00;100739.16;2106929;28;20218;-73
2022/01/13 00:35:28;;;;;;;115.45;50.03;;;;;;;-3.53;100.00;100737.53;2106847;28;20205;-73
2022/01/13 00:36:33;;;;;;;109.18;49.90;;;;;;;-3.50;100.00;100744.22;2106583;28;20248;-73
2022/01/13 00:37:35;;;;;;;112.30;50.90;;;;;;;-3.50;100.00;100759.88;2106876;28;20258;-74
2022/01/13 00:38:37;;;;;;;119.22;50.35;;;;;;;-3.47;100.00;100744.72;2106963;28;20190;-73
2022/01/13 00:39:38;;;;;;;111.47;50.00;;;;;;;-3.44;100.00;100756.63;2107761;28;20643;-73
2022/01/13 00:40:40;;;;;;;110.53;50.40;;;;;;;-3.45;100.00;100752.38;2106902;28;20568;-73
2022/01/13 00:41:40;;;;;;;122.03;51.38;;;;;;;-3.43;100.00;100748.63;2106904;28;20202;-73
2022/01/13 00:42:42;;;;;;;111.23;50.43;;;;;;;-3.42;100.00;100752.84;2107762;28;20268;-74
2022/01/13 00:43:47;;;;;;;116.22;49.92;;;;;;;-3.43;100.00;100748.63;2107545;28;20272;-73
2022/01/13 00:44:49;;;;;;;120.45;52.65;;;;;;;-3.42;100.00;100750.25;2107473;28;20261;-74
2022/01/13 00:45:50;;;;;;;113.80;50.47;;;;;;;-3.39;100.00;100746.47;2107530;28;20660;-73
2022/01/13 00:46:58;;;;;;;112.97;49.80;;;;;;;-3.38;100.00;100755.16;2106824;28;20585;-73
2022/01/13 00:47:58;;;;;;;122.75;51.30;;;;;;;-3.37;100.00;100749.78;2106878;28;20238;-73
2022/01/13 00:49:00;;;;;;;116.80;49.80;;;;;;;-3.34;100.00;100749.44;2107131;28;20181;-73
2022/01/13 00:50:04;;;;;;;117.95;50.75;;;;;;;-3.34;100.00;100743.41;2106414;28;20667;-74
2022/01/13 00:51:06;;;;;;;123.90;52.58;;;;;;;-3.32;100.00;100744.03;2106219;28;20589;-74
2022/01/13 00:52:10;;;;;;;104.53;50.67;;;;;;;-3.31;100.00;100738.66;2107045;28;20174;-74
2022/01/13 00:53:11;;;;;;;120.55;53.60;;;;;;;-3.30;100.00;100731.63;2106696;28;20293;-73
2022/01/13 00:54:13;;;;;;;119.77;51.93;;;;;;;-3.30;100.00;100735.09;2107001;28;20182;-73
2022/01/13 00:55:20;;;;;;;110.30;52.97;;;;;;;-3.30;100.00;100740.31;2107406;28;20551;-74
2022/01/13 00:56:22;;;;;;;120.97;51.33;;;;;;;-3.24;100.00;100733.59;2106756;28;20181;-73
2022/01/13 00:57:27;;;;;;;116.35;53.00;;;;;;;-3.24;100.00;100744.84;2098404;28;20195;-73
2022/01/13 00:58:31;;;;;;;123.72;53.10;;;;;;;-3.19;100.00;100746.97;2107151;28;20192;-73
2022/01/13 00:59:32;;;;;;;122.70;53.90;;;;;;;-3.21;100.00;100754.97;2106678;28;20197;-73
2022/01/13 01:00:34;;;;;;;114.72;52.15;;;;;;;-3.15;100.00;100753.50;2106766;28;20189;-73
2022/01/13 01:01:35;;;;;;;114.10;52.70;;;;;;;-3.15;100.00;100753.50;2107495;28;20264;-73
2022/01/13 01:02:38;;;;;;;118.13;52.35;;;;;;;-3.13;100.00;100761.97;2106703;28;20694;-74
2022/01/13 01:03:39;;;;;;;109.97;51.25;;;;;;;-3.14;100.00;100768.16;2106847;28;20193;-73
2022/01/13 01:04:42;;;;;;;125.17;54.40;;;;;;;-3.13;100.00;100767.19;2106716;28;20193;-74
2022/01/13 01:05:45;;;;;;;137.05;54.15;;;;;;;-3.14;100.00;100776.00;2098567;28;20283;-74
2022/01/13 01:06:49;;;;;;;127.70;55.08;;;;;;;-3.13;100.00;100769.78;2106326;28;20701;-74
2022/01/13 01:07:51;;;;;;;123.75;53.15;;;;;;;-3.16;100.00;100757.91;2106653;28;20197;-73
2022/01/13 01:08:52;;;;;;;122.95;54.88;;;;;;;-3.14;100.00;100768.16;2106675;28;20189;-73
2022/01/13 01:09:57;;;;;;;122.57;51.80;;;;;;;-3.12;100.00;100766.22;2106655;28;20200;-74
2022/01/13 01:11:01;;;;;;;117.47;53.08;;;;;;;-3.13;100.00;100772.41;2106639;28;20229;-73
2022/01/13 01:12:02;;;;;;;124.10;53.75;;;;;;;-3.15;100.00;100779.59;2106620;28;20198;-74
2022/01/13 01:13:11;;;;;;;115.65;51.97;;;;;;;-3.13;100.00;100772.41;2098260;28;20190;-74
2022/01/13 01:14:13;;;;;;;118.35;52.95;;;;;;;-3.13;100.00;100778.47;2106827;28;20174;-74
2022/01/13 01:15:15;;;;;;;118.40;53.15;;;;;;;-3.12;100.00;100779.28;2106555;28;20190;-75
2022/01/13 01:16:18;;;;;;;119.88;51.10;;;;;;;-3.11;100.00;100774.88;2106755;28;20194;-73
2022/01/13 01:17:19;;;;;;;131.45;54.80;;;;;;;-3.09;100.00;100783.34;2106524;28;20200;-74
2022/01/13 01:18:32;;;;;;;117.73;53.93;;;;;;;-3.07;100.00;100784.81;2098160;28;20190;-74
2022/01/13 01:19:36;;;;;;;121.65;53.17;;;;;;;-3.07;100.00;100776.97;2107006;28;20196;-74
2022/01/13 01:20:48;;;;;;;124.93;55.28;;;;;;;-3.06;100.00;100783.81;2106537;28;20189;-74
2022/01/13 01:23:15;;;;;;;118.65;52.90;;;;;;;-3.06;100.00;100770.78;2100606;28;20273;-73
2022/01/13 01:24:53;;;;;;;117.38;52.80;;;;;;;-3.05;100.00;100775.00;2106938;28;20209;-73
2022/01/13 01:26:05;;;;;;;115.78;52.70;;;;;;;-3.03;100.00;100773.06;2107066;28;20235;-74
2022/01/13 01:27:18;;;;;;;130.25;53.95;;;;;;;-3.02;100.00;100777.31;2107232;28;20631;-74
2022/01/13 01:28:27;;;;;;;120.60;52.15;;;;;;;-2.96;100.00;100773.19;2106531;28;20242;-74
2022/01/13 01:29:34;;;;;;;123.63;53.22;;;;;;;-2.95;100.00;100778.28;2106694;28;20197;-74
2022/01/13 01:30:40;;;;;;;132.00;53.45;;;;;;;-2.98;100.00;100770.75;2107300;28;20181;-74
2022/01/13 01:31:46;;;;;;;122.80;52.03;;;;;;;-2.99;100.00;100769.13;2107199;28;20672;-74
2022/01/13 01:32:50;;;;;;;124.35;53.65;;;;;;;-2.86;100.00;100773.88;2106445;28;20288;-74
2022/01/13 01:34:12;;;;;;;123.40;56.03;;;;;;;-2.88;100.00;100776.63;2106663;28;20181;-73
2022/01/13 01:35:14;;;;;;;119.85;53.72;;;;;;;-2.85;100.00;100784.13;2106471;28;20213;-74
2022/01/13 01:36:16;;;;;;;130.30;53.03;;;;;;;-2.85;100.00;100791.97;2105875;28;20648;-74
2022/01/13 01:37:18;;;;;;;124.05;54.33;;;;;;;-2.88;100.00;100796.69;2098245;28;20225;-74
2022/01/13 01:38:21;;;;;;;118.90;53.50;;;;;;;-2.92;100.00;100785.78;2106537;28;20189;-74
2022/01/13 01:39:22;;;;;;;122.05;52.45;;;;;;;-2.95;100.00;100795.75;2107123;28;20186;-73
2022/01/13 01:40:24;;;;;;;115.53;53.42;;;;;;;-2.91;100.00;100791.81;2107241;28;20216;-74
2022/01/13 01:41:26;;;;;;;127.30;53.88;;;;;;;-2.90;100.00;100783.81;2106309;28;20201;-74
2022/01/13 01:42:29;;;;;;;128.70;51.90;;;;;;;-2.91;100.00;100790.00;2106346;28;20239;-74
2022/01/13 01:43:29;;;;;;;104.03;46.53;;;;;;;-2.85;100.00;100791.16;2106517;28;20189;-74
2022/01/13 01:44:35;;;;;;;115.50;50.47;;;;;;;-2.86;100.00;100798.19;2107232;28;20192;-73
2022/01/13 01:45:43;;;;;;;122.90;53.47;;;;;;;-2.85;100.00;100784.13;2106419;28;20574;-74
2022/01/13 01:46:46;;;;;;;117.22;51.25;;;;;;;-2.87;100.00;100788.72;2099053;28;20557;-73
2022/01/13 01:47:51;;;;;;;115.57;49.55;;;;;;;-2.76;100.00;100778.91;2106152;28;20264;-74
2022/01/13 01:48:52;;;;;;;117.72;52.17;;;;;;;-2.77;100.00;100777.28;2106448;28;20706;-73
2022/01/13 01:49:58;;;;;;;123.63;53.53;;;;;;;-2.79;100.00;100774.00;2098016;28;20232;-74
2022/01/13 01:51:00;;;;;;;114.03;52.50;;;;;;;-2.82;100.00;100769.13;2106130;28;20177;-74
2022/01/13 01:52:01;;;;;;;115.20;50.58;;;;;;;-2.86;100.00;100764.22;2107107;28;20174;-74
2022/01/13 01:53:04;;;;;;;110.07;50.83;;;;;;;-2.80;100.00;100761.91;2107044;28;20185;-74
2022/01/13 01:54:07;;;;;;;113.40;51.63;;;;;;;-2.83;100.00;100772.72;2106333;28;20201;-74
2022/01/13 01:55:11;;;;;;;113.78;52.88;;;;;;;-2.80;100.00;100772.38;2106376;28;20201;-73
2022/01/13 01:56:13;;;;;;;120.65;53.75;;;;;;;-2.80;100.00;100782.81;2106288;28;20201;-74
2022/01/13 01:57:16;;;;;;;114.82;49.45;;;;;;;-2.78;100.00;100778.22;2098035;28;20233;-74
2022/01/13 01:58:16;;;;;;;119.88;51.67;;;;;;;-2.81;100.00;100773.34;2098177;28;20194;-74
2022/01/13 01:59:21;;;;;;;113.17;51.40;;;;;;;-2.84;100.00;100766.66;2106433;28;20272;-73
2022/01/13 02:00:26;;;;;;;115.63;51.53;;;;;;;-2.82;100.00;100763.88;2107220;28;20189;-74
2022/01/13 02:01:30;;;;;;;117.72;50.95;;;;;;;-2.82;100.00;100763.88;2107079;28;20213;-74
2022/01/13 02:02:31;;;;;;;111.45;49.33;;;;;;;-2.76;100.00;100773.69;2107021;28;20190;-73
2022/01/13 02:03:32;;;;;;;118.43;51.63;;;;;;;-2.73;100.00;100794.22;2106380;28;20185;-73
2022/01/13 02:04:34;;;;;;;112.20;49.40;;;;;;;-2.74;100.00;100772.53;2106645;28;20190;-73
2022/01/13 02:05:37;;;;;;;113.03;52.50;;;;;;;-2.76;100.00;100776.28;2107083;28;20194;-74
2022/01/13 02:06:39;;;;;;;113.72;48.85;;;;;;;-2.75;100.00;100775.31;2106668;28;20217;-73
2022/01/13 02:07:41;;;;;;;114.18;49.72;;;;;;;-2.68;100.00;100776.28;2107178;28;20185;-73
2022/01/13 02:08:45;;;;;;;107.28;48.15;;;;;;;-2.70;100.00;100775.59;2107242;28;20173;-74
2022/01/13 02:09:52;;;;;;;110.45;49.03;;;;;;;-2.70;100.00;100767.75;2107079;28;20190;-73
2022/01/13 02:10:53;;;;;;;117.47;49.35;;;;;;;-2.76;100.00;100756.22;2106857;28;20750;-74
2022/01/13 02:11:59;;;;;;;104.73;48.97;;;;;;;-2.65;100.00;100768.91;2106947;28;20552;-74
2022/01/13 02:13:05;;;;;;;102.00;47.25;;;;;;;-2.67;100.00;100762.22;2106973;28;20239;-74
2022/01/13 02:14:20;;;;;;;106.82;50.72;;;;;;;-2.68;100.00;100763.22;2107193;28;20181;-73
2022/01/13 02:15:33;;;;;;;112.70;48.20;;;;;;;-2.68;100.00;100766.63;2106149;28;20209;-74
2022/01/13 02:16:43;;;;;;;110.18;50.08;;;;;;;-2.66;100.00;100758.63;2106740;28;20601;-74
2022/01/13 02:17:45;;;;;;;107.70;49.33;;;;;;;-2.65;100.00;100768.09;2106357;28;20213;-74
2022/01/13 02:18:47;;;;;;;111.32;49.50;;;;;;;-2.67;100.00;100773.50;2106354;28;20193;-74
2022/01/13 02:19:48;;;;;;;119.68;47.90;;;;;;;-2.56;100.00;100770.50;2106216;28;20212;-74
2022/01/13 02:20:53;;;;;;;116.88;50.22;;;;;;;-2.61;100.00;100777.22;2106352;28;20588;-74
2022/01/13 02:21:54;;;;;;;118.68;49.28;;;;;;;-2.64;100.00;100782.78;2105875;28;20217;-73
2022/01/13 02:22:56;;;;;;;101.85;49.47;;;;;;;-2.57;100.00;100809.88;2106342;28;20564;-74
2022/01/13 02:23:58;;;;;;;107.25;46.45;;;;;;;-2.49;100.00;100822.91;2106913;28;20197;-72
2022/01/13 02:25:00;;;;;;;111.07;48.03;;;;;;;-2.52;100.00;100817.19;2106899;28;20683;-72
2022/01/13 02:26:01;;;;;;;112.47;50.33;;;;;;;-2.55;100.00;100823.56;2106842;28;20196;-72
2022/01/13 02:27:03;;;;;;;126.45;50.70;;;;;;;-2.58;100.00;100797.78;2106503;28;20296;-72
2022/01/13 02:28:05;;;;;;;108.55;50.33;;;;;;;-2.61;100.00;100800.72;2098016;28;20241;-71
2022/01/13 02:29:07;;;;;;;105.65;50.55;;;;;;;-2.56;100.00;100795.81;2097903;28;20200;-71
2022/01/13 02:30:11;;;;;;;115.43;50.97;;;;;;;-2.50;100.00;100792.53;2097987;28;20198;-72
2022/01/13 02:31:14;;;;;;;108.50;49.72;;;;;;;-2.52;100.00;100791.06;2098144;28;20202;-72
2022/01/13 02:32:15;;;;;;;123.97;50.20;;;;;;;-2.57;100.00;100781.13;2106565;28;20222;-72
2022/01/13 02:33:17;;;;;;;107.80;50.30;;;;;;;-2.53;100.00;100774.56;2106882;28;20259;-72
2022/01/13 02:34:18;;;;;;;106.78;48.65;;;;;;;-2.55;100.00;100773.94;2106857;28;20201;-72
2022/01/13 02:35:20;;;;;;;112.45;48.13;;;;;;;-2.54;100.00;100783.41;2106058;28;20221;-73
2022/01/13 02:36:23;;;;;;;117.40;49.80;;;;;;;-2.53;100.00;100764.13;2097354;28;20268;-72
2022/01/13 02:37:25;;;;;;;105.35;49.65;;;;;;;-2.51;100.00;100764.78;2106393;28;20186;-72
2022/01/13 02:38:29;;;;;;;111.50;48.35;;;;;;;-2.47;100.00;100745.16;2106885;28;20562;-72
2022/01/13 02:39:30;;;;;;;101.22;48.53;;;;;;;-2.42;100.00;100745.47;2106105;28;20205;-72
2022/01/13 02:40:31;;;;;;;109.90;49.92;;;;;;;-2.46;100.00;100738.94;2106361;28;20189;-72
2022/01/13 02:41:32;;;;;;;109.78;49.47;;;;;;;-2.50;100.00;100745.50;2106859;28;20189;-73
2022/01/13 02:42:34;;;;;;;100.47;48.83;;;;;;;-2.50;100.00;100750.75;2106184;28;20221;-72
2022/01/13 02:43:35;;;;;;;115.80;50.83;;;;;;;-2.47;100.00;100739.94;2106380;28;20221;-72
2022/01/13 02:44:45;;;;;;;104.30;48.40;;;;;;;-2.50;100.00;100736.88;2106864;28;20235;-73
2022/01/13 02:46:03;;;;;;;116.70;49.17;;;;;;;-2.44;100.00;100736.97;2106996;28;20170;-73
2022/01/13 02:47:20;;;;;;;104.57;48.35;;;;;;;-2.48;100.00;100722.63;2106849;28;20189;-73
2022/01/13 02:48:31;;;;;;;116.88;47.28;;;;;;;-2.39;100.00;100721.63;2106182;28;20258;-73
2022/01/13 02:49:32;;;;;;;109.30;49.70;;;;;;;-2.43;100.00;100714.28;2099080;28;20198;-73
2022/01/13 02:50:34;;;;;;;104.00;47.53;;;;;;;-2.40;100.00;100711.34;2106318;28;20212;-73
2022/01/13 02:51:37;;;;;;;101.50;48.40;;;;;;;-2.42;100.00;100711.50;2105673;28;20269;-74
2022/01/13 02:52:39;;;;;;;115.03;49.20;;;;;;;-2.41;100.00;100720.97;2098191;28;20202;-73
2022/01/13 02:53:40;;;;;;;106.80;46.95;;;;;;;-2.38;100.00;100718.00;2107082;28;20194;-73
2022/01/13 02:54:42;;;;;;;110.60;47.13;;;;;;;-2.36;100.00;100734.31;2107798;28;20201;-72
2022/01/13 02:55:43;;;;;;;102.57;47.22;;;;;;;-2.35;100.00;100732.53;2107573;28;20228;-72
2022/01/13 02:56:45;;;;;;;99.93;45.37;;;;;;;-2.38;100.00;100741.53;2107827;28;20178;-72
2022/01/13 02:57:47;;;;;;;102.00;46.70;;;;;;;-2.39;100.00;100745.13;2107600;28;20223;-73
2022/01/13 02:58:50;;;;;;;101.75;46.63;;;;;;;-2.36;100.00;100741.34;2107916;28;20186;-73
2022/01/13 02:59:50;;;;;;;97.13;45.20;;;;;;;-2.34;100.00;100753.28;2108591;28;20725;-73
2022/01/13 03:00:52;;;;;;;100.90;47.30;;;;;;;-2.35;100.00;100749.03;2107567;28;20644;-73
2022/01/13 03:01:53;;;;;;;102.35;47.42;;;;;;;-2.38;100.00;100744.16;2107850;28;20190;-74
2022/01/13 03:02:55;;;;;;;106.97;49.93;;;;;;;-2.38;100.00;100743.34;2108351;28;20723;-73
2022/01/13 03:03:58;;;;;;;106.20;46.15;;;;;;;-2.37;100.00;100745.78;2107676;28;20190;-73
2022/01/13 03:05:01;;;;;;;98.35;47.47;;;;;;;-2.36;100.00;100743.97;2099581;28;20253;-73
2022/01/13 03:06:07;;;;;;;103.07;47.33;;;;;;;-2.36;100.00;100757.03;2107161;28;20181;-74
2022/01/13 03:07:10;;;;;;;105.50;47.15;;;;;;;-2.37;100.00;100747.56;2108549;28;20174;-73
2022/01/13 03:08:11;;;;;;;103.93;46.35;;;;;;;-2.36;100.00;100755.25;2108262;28;20200;-73
2022/01/13 03:09:13;;;;;;;103.30;47.83;;;;;;;-2.36;100.00;100759.66;2107617;28;20203;-73
2022/01/13 03:10:15;;;;;;;102.38;47.97;;;;;;;-2.35;100.00;100766.50;2107894;28;20239;-73
2022/01/13 03:11:17;;;;;;;108.20;46.35;;;;;;;-2.33;100.00;100775.81;2107437;28;20236;-73
2022/01/13 03:12:21;;;;;;;106.53;48.33;;;;;;;-2.30;100.00;100774.66;2107747;28;20205;-73
2022/01/13 03:13:24;;;;;;;98.47;46.95;;;;;;;-2.25;100.00;100777.59;2108476;28;20248;-73
2022/01/13 03:14:25;;;;;;;103.75;48.13;;;;;;;-2.28;100.00;100776.13;2107596;28;20193;-73
2022/01/13 03:15:26;;;;;;;99.68;47.38;;;;;;;-2.23;100.00;100775.63;2107578;28;20699;-73
2022/01/13 03:16:29;;;;;;;101.63;47.70;;;;;;;-2.20;100.00;100780.50;2107559;28;20638;-73
2022/01/13 03:17:30;;;;;;;99.07;46.33;;;;;;;-2.21;100.00;100767.59;2099305;28;20448;-73
2022/01/13 03:18:31;;;;;;;93.50;45.67;;;;;;;-2.23;100.00;100765.16;2107602;28;20188;-73
2022/01/13 03:19:32;;;;;;;101.38;48.28;;;;;;;-2.21;100.00;100770.22;2107509;28;20205;-73
2022/01/13 03:20:35;;;;;;;100.23;46.53;;;;;;;-2.17;100.00;100763.66;2107478;28;20292;-73
2022/01/13 03:21:36;;;;;;;107.55;47.72;;;;;;;-2.13;100.00;100764.94;2098895;28;20226;-73
2022/01/13 03:22:39;;;;;;;100.50;47.27;;;;;;;-2.15;100.00;100756.47;2107545;28;20258;-73
2022/01/13 03:23:40;;;;;;;102.70;47.13;;;;;;;-2.12;100.00;100756.94;2107450;28;20193;-73
2022/01/13 03:24:43;;;;;;;90.13;45.80;;;;;;;-2.14;100.00;100761.53;2107704;28;20733;-73
2022/01/13 03:25:46;;;;;;;101.57;46.70;;;;;;;-2.10;100.00;100761.97;2107428;28;20201;-73
2022/01/13 03:26:49;;;;;;;107.07;46.53;;;;;;;-2.10;100.00;100770.63;2099437;28;20205;-73
2022/01/13 03:27:56;;;;;;;92.20;45.30;;;;;;;-2.08;100.00;100762.66;2107445;28;20200;-74
2022/01/13 03:29:14;;;;;;;99.65;46.15;;;;;;;-2.05;100.00;100762.31;2107500;28;20197;-73
2022/01/13 03:30:15;;;;;;;101.95;45.45;;;;;;;-2.02;100.00;100759.31;2107462;28;20215;-74
2022/01/13 03:31:18;;;;;;;96.87;47.37;;;;;;;-2.06;100.00;100743.19;2107523;28;20189;-74
2022/01/13 03:32:20;;;;;;;94.82;47.20;;;;;;;-2.01;100.00;100758.34;2108131;28;20189;-73
2022/01/13 03:33:22;;;;;;;92.63;46.95;;;;;;;-1.98;100.00;100752.78;2108074;28;20251;-74
2022/01/13 03:34:24;;;;;;;97.70;45.38;;;;;;;-2.00;100.00;100752.97;2108085;28;20197;-74
2022/01/13 03:35:26;;;;;;;90.03;44.38;;;;;;;-1.96;100.00;100739.53;2107336;28;20194;-74
2022/01/13 03:36:27;;;;;;;95.60;44.30;;;;;;;-1.96;100.00;100745.56;2098760;28;20603;-74
2022/01/13 03:37:30;;;;;;;89.15;45.60;;;;;;;-1.95;100.00;100734.13;2107622;28;20182;-74
2022/01/13 03:38:34;;;;;;;94.93;47.08;;;;;;;-1.94;100.00;100733.13;2108228;28;20190;-73
2022/01/13 03:39:36;;;;;;;88.38;45.05;;;;;;;-1.93;100.00;100729.53;2107751;28;20671;-73
2022/01/13 03:40:39;;;;;;;94.88;46.13;;;;;;;-1.93;100.00;100737.38;2107451;28;20204;-73
2022/01/13 03:41:43;;;;;;;87.13;46.22;;;;;;;-1.88;100.00;100723.78;2108034;28;20231;-74
2022/01/13 03:42:44;;;;;;;94.45;46.83;;;;;;;-1.88;100.00;100729.84;2108160;28;20182;-74
2022/01/13 03:43:46;;;;;;;99.53;46.03;;;;;;;-1.84;100.00;100730.28;2108094;28;20239;-73
2022/01/13 03:44:47;;;;;;;91.38;45.28;;;;;;;-1.84;100.00;100715.41;2108046;28;20613;-73
2022/01/13 03:45:49;;;;;;;91.27;45.97;;;;;;;-1.81;100.00;100722.91;2107240;28;20190;-74
2022/01/13 03:46:50;;;;;;;92.93;46.05;;;;;;;-1.81;100.00;100717.69;2098920;28;20276;-73
2022/01/13 03:47:51;;;;;;;88.23;43.10;;;;;;;-1.75;100.00;100737.91;2107400;28;20197;-74
2022/01/13 03:48:53;;;;;;;100.38;45.47;;;;;;;-1.75;100.00;100724.81;2108009;28;20952;-74
2022/01/13 03:49:55;;;;;;;92.30;44.25;;;;;;;-1.73;100.00;100720.25;2107709;28;20272;-74
2022/01/13 03:50:56;;;;;;;94.45;45.22;;;;;;;-1.73;100.00;100715.03;2107054;28;20664;-73
2022/01/13 03:52:42;;;;;;;91.30;44.60;;;;;;;-1.70;100.00;100708.63;2107311;28;20612;-73
2022/01/13 03:54:21;;;;;;;78.90;41.22;;;;;;;-1.63;100.00;100724.44;2105101;28;20232;-73
2022/01/13 03:56:00;;;;;;;86.70;42.22;;;;;;;-1.59;100.00;100728.31;2107698;28;20185;-73
2022/01/13 03:58:02;;;;;;;89.22;41.08;;;;;;;-1.59;100.00;100747.44;2107157;28;20313;-73
2022/01/13 03:59:45;;;;;;;78.32;40.42;;;;;;;-1.53;100.00;100748.56;2107884;28;20563;-74
2022/01/13 04:01:35;;;;;;;79.00;42.17;;;;;;;-1.49;100.00;100745.41;2107152;28;20609;-73
2022/01/13 04:02:37;;;;;;;79.90;40.85;;;;;;;-1.50;100.00;100743.78;2080436;28;20654;-73
2022/01/13 04:03:38;;;;;;;84.50;41.53;;;;;;;-1.49;100.00;100748.00;2079408;28;20295;-73
2022/01/13 04:04:42;;;;;;;79.70;42.13;;;;;;;-1.50;100.00;100750.81;2098588;28;20185;-74
2022/01/13 04:06:01;;;;;;;77.65;41.67;;;;;;;-1.48;100.00;100746.22;2099209;28;20260;-74
2022/01/13 04:07:15;;;;;;;87.15;43.40;;;;;;;-1.47;100.00;100755.72;2101362;28;20300;-74
2022/01/13 04:08:15;;;;;;;78.13;40.60;;;;;;;-1.50;100.00;100761.28;2100500;28;20290;-74
2022/01/13 04:09:37;;;;;;;83.43;42.80;;;;;;;-1.50;100.00;100756.03;2107246;28;20189;-74
2022/01/13 04:11:16;;;;;;;82.68;41.35;;;;;;;-1.49;100.00;100758.47;2107853;28;20181;-74
2022/01/13 04:12:21;;;;;;;82.05;39.83;;;;;;;-1.43;100.00;100751.75;2108085;28;20230;-74
2022/01/13 04:13:43;;;;;;;72.00;39.45;;;;;;;-1.44;100.00;100761.41;2107798;28;20220;-74
2022/01/13 04:14:48;;;;;;;78.07;40.42;;;;;;;-1.42;100.00;100750.75;2107768;28;20205;-74
2022/01/13 04:15:51;;;;;;;76.60;40.50;;;;;;;-1.46;100.00;100742.44;2107482;28;20212;-74
2022/01/13 04:16:53;;;;;;;72.40;41.05;;;;;;;-1.40;100.00;100750.56;2107275;28;20190;-74
2022/01/13 04:17:54;;;;;;;75.00;40.42;;;;;;;-1.32;100.00;100745.28;2107940;28;20186;-73
2022/01/13 04:19:02;;;;;;;75.10;40.88;;;;;;;-1.27;100.00;100756.84;2107735;28;20652;-73
2022/01/13 04:20:05;;;;;;;76.80;42.55;;;;;;;-1.21;100.00;100755.34;2107096;28;20234;-74
2022/01/13 04:21:08;;;;;;;71.05;38.35;;;;;;;-1.18;100.00;100750.53;2106661;28;20239;-73
2022/01/13 04:22:11;;;;;;;74.55;38.60;;;;;;;-1.16;100.00;100738.09;2107702;28;20607;-74
2022/01/13 04:23:13;;;;;;;73.63;38.40;;;;;;;-1.16;100.00;100747.75;2107738;28;20248;-73
2022/01/13 04:24:14;;;;;;;71.45;37.50;;;;;;;-1.17;100.00;100746.94;2107729;28;20186;-74
2022/01/13 04:25:21;;;;;;;66.43;36.47;;;;;;;-1.14;100.00;100743.13;2107695;28;20192;-74
2022/01/13 04:26:27;;;;;;;73.03;38.72;;;;;;;-1.19;100.00;100742.88;2107034;28;20186;-73
2022/01/13 04:27:38;;;;;;;68.93;36.70;;;;;;;-1.13;100.00;100734.28;2099352;28;20206;-73
2022/01/13 04:28:41;;;;;;;74.07;39.50;;;;;;;-1.16;100.00;100732.03;2099821;28;20219;-73
2022/01/13 04:29:45;;;;;;;79.70;40.00;;;;;;;-1.15;100.00;100729.22;2098790;28;20678;-73
2022/01/13 04:30:50;;;;;;;75.03;38.20;;;;;;;-1.10;100.00;100736.56;2099138;28;20190;-73
2022/01/13 04:31:51;;;;;;;79.72;39.55;;;;;;;-1.21;100.00;100732.59;2107150;28;20174;-73
2022/01/13 04:32:53;;;;;;;69.93;38.17;;;;;;;-1.21;100.00;100735.19;2107642;28;20197;-74
2022/01/13 04:33:56;;;;;;;77.30;41.65;;;;;;;-1.24;100.00;100732.91;2107830;28;20193;-73
2022/01/13 04:34:58;;;;;;;82.97;41.17;;;;;;;-1.28;100.00;100736.91;2106862;28;20201;-73
2022/01/13 04:36:01;;;;;;;73.60;37.87;;;;;;;-1.25;100.00;100731.28;2106484;28;20255;-74
2022/01/13 04:37:04;;;;;;;72.80;40.92;;;;;;;-1.25;100.00;100728.69;2107612;28;20404;-73
2022/01/13 04:38:05;;;;;;;77.50;38.38;;;;;;;-1.26;100.00;100721.81;2106854;28;20633;-74
2022/01/13 04:39:08;;;;;;;68.10;36.60;;;;;;;-1.18;100.00;100734.03;2107003;28;20189;-73
2022/01/13 04:40:09;;;;;;;73.95;39.30;;;;;;;-1.16;100.00;100737.28;2107700;28;20193;-73
2022/01/13 04:41:11;;;;;;;69.70;39.70;;;;;;;-1.13;100.00;100721.19;2107552;28;20239;-74
2022/01/13 04:42:14;;;;;;;74.53;39.55;;;;;;;-1.15;100.00;100718.75;2107775;28;20189;-73
2022/01/13 04:43:19;;;;;;;69.22;36.90;;;;;;;-1.16;100.00;100721.56;2107544;28;20186;-73
2022/01/13 04:44:23;;;;;;;70.32;38.53;;;;;;;-1.18;100.00;100719.13;2107516;28;20606;-73
2022/01/13 04:45:26;;;;;;;65.55;36.78;;;;;;;-1.19;100.00;100722.75;2107623;28;20235;-74
2022/01/13 04:46:28;;;;;;;66.88;37.28;;;;;;;-1.18;100.00;100724.38;2107687;28;20247;-73
2022/01/13 04:47:29;;;;;;;67.40;37.35;;;;;;;-1.16;100.00;100717.13;2106786;28;20197;-74
2022/01/13 04:48:31;;;;;;;75.33;38.00;;;;;;;-1.16;100.00;100717.13;2098416;28;20248;-73
2022/01/13 04:49:32;;;;;;;62.88;35.90;;;;;;;-1.17;100.00;100720.75;2106906;28;20284;-73
2022/01/13 04:50:35;;;;;;;74.60;36.93;;;;;;;-1.10;100.00;100717.44;2106825;28;20189;-74
2022/01/13 04:51:40;;;;;;;66.75;36.33;;;;;;;-1.08;100.00;100718.88;2106507;28;20221;-73
2022/01/13 04:52:41;;;;;;;71.10;36.75;;;;;;;-1.08;100.00;100718.06;2107083;28;20562;-73